createdAt,value
2023-05-06T00:02:20.733Z,101048.20
2023-05-06T00:04:48.821Z,101047.40
2023-05-06T00:07:17.043Z,101043.13
2023-05-06T00:09:44.919Z,101036.77
2023-05-06T00:12:12.849Z,101039.75
2023-05-06T00:14:41.352Z,101042.89
2023-05-06T00:17:09.209Z,101041.99
2023-05-06T00:19:37.134Z,101047.00
2023-05-06T00:22:05.044Z,101041.84
2023-05-06T00:24:32.940Z,101039.33
2023-05-06T00:27:01.830Z,101038.42
2023-05-06T00:29:30.408Z,101037.91
2023-05-06T00:31:58.767Z,101039.04
2023-05-06T00:34:26.701Z,101035.65
2023-05-06T00:36:54.595Z,101032.05
2023-05-06T00:39:22.553Z,101035.98
2023-05-06T00:41:50.426Z,101034.61
2023-05-06T00:44:18.270Z,101030.69
2023-05-06T00:46:46.187Z,101022.65
2023-05-06T00:49:15.062Z,101013.92
2023-05-06T00:51:43.112Z,101010.80
2023-05-06T00:54:11.970Z,101010.17
2023-05-06T00:56:42.084Z,101005.65
2023-05-06T00:59:10.090Z,100999.52
2023-05-06T01:01:38.476Z,100996.68
2023-05-06T01:04:07.463Z,100993.34
2023-05-06T01:07:10.141Z,100992.34
2023-05-06T01:09:55.863Z,100985.41
2023-05-06T01:12:34.145Z,100983.18
2023-05-06T01:15:14.924Z,100982.41
2023-05-06T01:17:50.290Z,100985.00
2023-05-06T01:20:21.236Z,100981.36
2023-05-06T01:22:49.895Z,100983.91
2023-05-06T01:25:20.500Z,100983.35
2023-05-06T01:27:50.224Z,100984.04
2023-05-06T01:30:21.103Z,100985.23
2023-05-06T01:33:04.346Z,100984.77
2023-05-06T01:36:03.218Z,100984.23
2023-05-06T01:38:42.425Z,100982.77
2023-05-06T01:41:16.947Z,100980.94
2023-05-06T01:43:48.050Z,100980.45
2023-05-06T01:46:22.235Z,100973.80
2023-05-06T01:48:55.068Z,100979.27
2023-05-06T01:51:24.861Z,100983.14
2023-05-06T01:53:52.891Z,100981.40
2023-05-06T01:56:20.799Z,100985.48
2023-05-06T01:58:48.729Z,100982.92
2023-05-06T02:01:16.743Z,100983.27
2023-05-06T02:03:44.724Z,100983.85
2023-05-06T02:06:12.828Z,100985.61
2023-05-06T02:08:41.194Z,100978.52
2023-05-06T02:11:11.264Z,100976.84
2023-05-06T02:13:39.452Z,100975.80
2023-05-06T02:16:09.070Z,100972.31
2023-05-06T02:18:38.182Z,100970.02
2023-05-06T02:21:06.189Z,100972.85
2023-05-06T02:23:34.079Z,100971.23
2023-05-06T02:26:02.012Z,100968.59
2023-05-06T02:28:30.232Z,100962.02
2023-05-06T02:30:58.833Z,100957.52
2023-05-06T02:33:26.691Z,100952.59
2023-05-06T02:35:54.579Z,100953.42
2023-05-06T02:38:22.873Z,100952.83
2023-05-06T02:40:50.732Z,100957.90
2023-05-06T02:43:18.656Z,100957.94
2023-05-06T02:45:46.577Z,100954.05
2023-05-06T02:48:14.439Z,100952.22
2023-05-06T02:50:42.263Z,100956.46
2023-05-06T02:53:10.513Z,100954.91
2023-05-06T02:55:38.976Z,100951.19
2023-05-06T02:58:07.309Z,100952.02
2023-05-06T03:00:35.329Z,100950.90
2023-05-06T03:03:03.853Z,100955.81
2023-05-06T03:05:31.827Z,100957.36
2023-05-06T03:07:59.675Z,100950.55
2023-05-06T03:10:28.309Z,100948.77
2023-05-06T03:12:56.697Z,100959.57
2023-05-06T03:15:24.655Z,100954.73
2023-05-06T03:17:52.567Z,100943.98
2023-05-06T03:20:21.368Z,100943.98
2023-05-06T03:22:52.056Z,100946.34
2023-05-06T03:25:21.191Z,100943.61
2023-05-06T03:27:49.026Z,100940.53
2023-05-06T03:30:20.091Z,100938.98
2023-05-06T03:32:49.140Z,100936.27
2023-05-06T03:35:22.931Z,100939.55
2023-05-06T03:37:54.323Z,100940.37
2023-05-06T03:40:22.974Z,100935.28
2023-05-06T03:42:52.076Z,100935.42
2023-05-06T03:45:20.502Z,100935.56
2023-05-06T03:47:48.951Z,100937.79
2023-05-06T03:50:17.691Z,100944.75
2023-05-06T03:52:45.812Z,100940.02
2023-05-06T03:55:13.767Z,100943.08
2023-05-06T03:57:41.666Z,100939.08
2023-05-06T04:00:10.552Z,100942.89
2023-05-06T04:02:44.086Z,100946.21
2023-05-06T04:05:16.812Z,100941.63
2023-05-06T04:07:45.542Z,100939.16
2023-05-06T04:10:13.456Z,100943.31
2023-05-06T04:12:42.167Z,100940.58
2023-05-06T04:15:14.561Z,100942.39
2023-05-06T04:17:43.563Z,100942.98
2023-05-06T04:20:12.474Z,100942.16
2023-05-06T04:22:40.706Z,100940.98
2023-05-06T04:25:09.666Z,100945.50
2023-05-06T04:27:38.463Z,100949.75
2023-05-06T04:30:08.541Z,100948.25
2023-05-06T04:32:38.578Z,100944.14
2023-05-06T04:35:08.097Z,100946.88
2023-05-06T04:37:37.946Z,100942.52
2023-05-06T04:40:13.734Z,100940.55
2023-05-06T04:42:42.779Z,100938.13
2023-05-06T04:45:15.651Z,100935.69
2023-05-06T04:47:45.873Z,100935.17
2023-05-06T04:50:14.626Z,100934.02
2023-05-06T04:52:43.443Z,100932.69
2023-05-06T04:55:12.489Z,100931.02
2023-05-06T04:57:44.098Z,100926.46
2023-05-06T05:00:14.742Z,100923.73
2023-05-06T05:02:42.963Z,100926.52
2023-05-06T05:05:11.389Z,100936.89
2023-05-06T05:07:40.479Z,100939.29
2023-05-06T05:10:10.303Z,100939.65
2023-05-06T05:12:38.594Z,100940.45
2023-05-06T05:15:07.312Z,100942.75
2023-05-06T05:17:35.538Z,100945.77
2023-05-06T05:20:05.710Z,100950.25
2023-05-06T05:22:33.824Z,100950.63
2023-05-06T05:25:02.178Z,100949.59
2023-05-06T05:27:30.569Z,100947.75
2023-05-06T05:29:58.856Z,100948.57
2023-05-06T05:32:27.654Z,100947.45
2023-05-06T05:34:55.584Z,100946.65
2023-05-06T05:37:23.790Z,100948.21
2023-05-06T05:39:52.264Z,100945.15
2023-05-06T05:42:20.439Z,100946.79
2023-05-06T05:44:48.848Z,100947.98
2023-05-06T05:47:17.487Z,100949.08
2023-05-06T05:49:45.888Z,100945.74
2023-05-06T05:52:14.709Z,100940.37
2023-05-06T05:54:43.560Z,100940.02
2023-05-06T05:57:11.428Z,100938.48
2023-05-06T05:59:40.382Z,100938.15
2023-05-06T06:02:08.613Z,100933.20
2023-05-06T06:04:36.583Z,100933.69
2023-05-06T06:07:05.868Z,100933.55
2023-05-06T06:09:36.947Z,100930.20
2023-05-06T06:12:05.743Z,100932.31
2023-05-06T06:14:34.508Z,100936.46
2023-05-06T06:17:02.805Z,100938.66
2023-05-06T06:19:31.348Z,100936.97
2023-05-06T06:21:59.648Z,100939.32
2023-05-06T06:24:27.684Z,100935.41
2023-05-06T06:26:55.593Z,100936.07
2023-05-06T06:29:23.485Z,100939.83
2023-05-06T06:31:51.413Z,100937.45
2023-05-06T06:34:19.447Z,100933.67
2023-05-06T06:36:47.697Z,100929.91
2023-05-06T06:39:15.650Z,100935.18
2023-05-06T06:41:43.668Z,100931.66
2023-05-06T06:44:11.545Z,100928.27
2023-05-06T06:46:39.510Z,100924.67
2023-05-06T06:49:07.353Z,100927.18
2023-05-06T06:51:35.311Z,100925.27
2023-05-06T06:54:03.440Z,100925.16
2023-05-06T06:56:31.896Z,100926.92
2023-05-06T06:58:59.878Z,100924.67
2023-05-06T07:01:27.911Z,100924.72
2023-05-06T07:03:56.196Z,100927.17
2023-05-06T07:06:24.062Z,100929.76
2023-05-06T07:08:51.924Z,100930.34
2023-05-06T07:11:19.848Z,100935.95
2023-05-06T07:13:47.713Z,100937.73
2023-05-06T07:16:15.648Z,100938.45
2023-05-06T07:18:43.494Z,100940.02
2023-05-06T07:21:11.379Z,100944.40
2023-05-06T07:23:39.326Z,100945.54
2023-05-06T07:26:07.265Z,100943.23
2023-05-06T07:28:35.155Z,100942.71
2023-05-06T07:31:03.203Z,100945.65
2023-05-06T07:33:40.750Z,100948.25
2023-05-06T07:36:10.627Z,100947.29
2023-05-06T07:38:38.570Z,100952.13
2023-05-06T07:41:06.446Z,100951.70
2023-05-06T07:43:34.338Z,100953.28
2023-05-06T07:46:03.013Z,100951.30
2023-05-06T07:48:35.351Z,100948.02
2023-05-06T07:51:03.929Z,100945.45
2023-05-06T07:53:31.879Z,100942.81
2023-05-06T07:56:02.249Z,100949.23
2023-05-06T07:58:31.725Z,100952.63
2023-05-06T08:01:00.171Z,100954.88
2023-05-06T08:03:28.235Z,100958.67
2023-05-06T08:05:56.439Z,100962.48
2023-05-06T08:08:28.160Z,100967.23
2023-05-06T08:10:58.479Z,100971.55
2023-05-06T08:13:28.050Z,100970.09
2023-05-06T08:15:56.091Z,100969.63
2023-05-06T08:18:24.157Z,100972.98
2023-05-06T08:20:52.181Z,100976.88
2023-05-06T08:23:20.734Z,100977.05
2023-05-06T08:25:48.617Z,100972.34
2023-05-06T08:28:16.921Z,100973.82
2023-05-06T08:30:47.660Z,100970.33
2023-05-06T08:33:15.620Z,100970.19
2023-05-06T08:35:44.801Z,100969.05
2023-05-06T08:38:12.739Z,100968.64
2023-05-06T08:40:44.921Z,100971.88
2023-05-06T08:43:14.705Z,100974.95
2023-05-06T08:45:42.793Z,100977.27
2023-05-06T08:48:11.267Z,100977.88
2023-05-06T08:50:43.287Z,100973.39
2023-05-06T08:53:13.576Z,100980.08
2023-05-06T08:55:42.706Z,100982.37
2023-05-06T08:58:15.711Z,100978.45
2023-05-06T09:00:44.415Z,100973.52
2023-05-06T09:03:12.427Z,100966.54
2023-05-06T09:05:40.809Z,100967.90
2023-05-06T09:08:08.751Z,100970.77
2023-05-06T09:10:44.858Z,100966.32
2023-05-06T09:13:15.869Z,100964.07
2023-05-06T09:15:49.941Z,100961.46
2023-05-06T09:18:18.080Z,100965.23
2023-05-06T09:20:49.123Z,100957.95
2023-05-06T09:23:18.324Z,100953.39
2023-05-06T09:25:47.537Z,100943.20
2023-05-06T09:28:15.518Z,100933.08
2023-05-06T09:30:47.456Z,100933.94
2023-05-06T09:33:16.165Z,100928.20
2023-05-06T09:35:44.377Z,100930.14
2023-05-06T09:38:12.348Z,100929.30
2023-05-06T09:40:40.347Z,100924.98
2023-05-06T09:43:09.981Z,100927.94
2023-05-06T09:45:37.829Z,100926.85
2023-05-06T09:48:08.336Z,100936.66
2023-05-06T09:50:36.651Z,100947.73
2023-05-06T09:53:06.074Z,100956.27
2023-05-06T09:55:35.466Z,100953.05
2023-05-06T09:58:05.465Z,100944.66
2023-05-06T10:00:34.278Z,100945.86
2023-05-06T10:03:04.449Z,100956.06
2023-05-06T10:05:38.581Z,100956.94
2023-05-06T10:08:09.040Z,100955.25
2023-05-06T10:10:40.472Z,100958.34
2023-05-06T10:13:10.500Z,100948.58
2023-05-06T10:15:39.259Z,100943.70
2023-05-06T10:18:09.718Z,100944.48
2023-05-06T10:20:42.798Z,100944.94
2023-05-06T10:23:29.087Z,100942.23
2023-05-06T10:26:06.519Z,100938.36
2023-05-06T10:28:41.197Z,100936.41
2023-05-06T10:31:13.919Z,100935.37
2023-05-06T10:33:44.874Z,100924.98
2023-05-06T10:36:21.524Z,100922.32
2023-05-06T10:38:56.664Z,100913.51
2023-05-06T10:41:27.888Z,100906.45
2023-05-06T10:43:57.540Z,100905.27
2023-05-06T10:46:28.236Z,100904.75
2023-05-06T10:49:08.579Z,100907.92
2023-05-06T10:51:43.688Z,100899.60
2023-05-06T10:54:24.040Z,100898.55
2023-05-06T10:56:52.571Z,100889.30
2023-05-06T10:59:24.569Z,100895.42
2023-05-06T11:02:08.381Z,100893.84
2023-05-06T11:04:37.550Z,100901.20
2023-05-06T11:07:22.323Z,100899.11
2023-05-06T11:10:02.070Z,100902.72
2023-05-06T11:12:53.504Z,100902.96
2023-05-06T11:15:37.395Z,100905.71
2023-05-06T11:18:26.761Z,100901.26
2023-05-06T11:21:05.129Z,100903.50
2023-05-06T11:23:42.550Z,100900.61
2023-05-06T11:26:12.554Z,100899.55
2023-05-06T11:28:44.935Z,100898.70
2023-05-06T11:31:14.163Z,100905.32
2023-05-06T11:33:47.792Z,100907.47
2023-05-06T11:36:18.569Z,100908.09
2023-05-06T11:38:56.171Z,100914.77
2023-05-06T11:41:24.209Z,100918.46
2023-05-06T11:43:53.310Z,100922.79
2023-05-06T11:46:24.116Z,100931.10
2023-05-06T11:48:52.316Z,100933.10
2023-05-06T11:51:24.603Z,100939.33
2023-05-06T11:54:05.041Z,100940.50
2023-05-06T11:56:54.348Z,100941.05
2023-05-06T11:59:34.732Z,100935.77
2023-05-06T12:02:07.766Z,100942.11
2023-05-06T12:04:43.932Z,100939.23
2023-05-06T12:07:14.485Z,100938.04
2023-05-06T12:09:47.355Z,100938.67
2023-05-06T12:12:18.977Z,100944.40
2023-05-06T12:14:47.605Z,100949.30
2023-05-06T12:17:16.518Z,100963.69
2023-05-06T12:19:46.743Z,100972.30
2023-05-06T12:22:18.040Z,100981.57
2023-05-06T12:24:47.616Z,100989.15
2023-05-06T12:27:33.119Z,100999.92
2023-05-06T12:30:04.129Z,101006.72
2023-05-06T12:32:32.114Z,101009.81
2023-05-06T12:35:05.709Z,101014.53
2023-05-06T12:37:33.802Z,101012.96
2023-05-06T12:40:01.705Z,101019.29
2023-05-06T12:42:29.617Z,101018.34
2023-05-06T12:44:57.811Z,101017.71
2023-05-06T12:47:26.273Z,101023.27
2023-05-06T12:50:01.016Z,101024.99
2023-05-06T12:52:30.090Z,101030.12
2023-05-06T12:55:01.448Z,101031.56
2023-05-06T12:57:29.362Z,101035.52
2023-05-06T12:59:57.230Z,101029.51
2023-05-06T13:02:25.317Z,101036.64
2023-05-06T13:04:53.648Z,101032.34
2023-05-06T13:07:22.319Z,101027.47
2023-05-06T13:09:50.482Z,101027.93
2023-05-06T13:12:18.416Z,101031.51
2023-05-06T13:14:46.292Z,101034.52
2023-05-06T13:17:14.841Z,101039.36
2023-05-06T13:19:43.031Z,101034.14
2023-05-06T13:22:11.152Z,101036.61
2023-05-06T13:24:39.132Z,101035.07
2023-05-06T13:27:07.184Z,101036.67
2023-05-06T13:29:35.447Z,101040.67
2023-05-06T13:32:05.149Z,101040.11
2023-05-06T13:34:34.356Z,101041.89
2023-05-06T13:37:02.239Z,101037.65
2023-05-06T13:39:30.753Z,101041.46
2023-05-06T13:41:58.659Z,101041.00
2023-05-06T13:44:26.590Z,101044.44
2023-05-06T13:46:54.562Z,101042.21
2023-05-06T13:49:22.550Z,101041.00
2023-05-06T13:51:50.467Z,101036.12
2023-05-06T13:54:18.348Z,101035.83
2023-05-06T13:56:46.189Z,101036.48
2023-05-06T13:59:14.177Z,101033.78
2023-05-06T14:01:42.824Z,101033.98
2023-05-06T14:04:10.787Z,101035.76
2023-05-06T14:06:38.775Z,101037.28
2023-05-06T14:09:08.066Z,101037.02
2023-05-06T14:11:36.080Z,101038.19
2023-05-06T14:14:05.213Z,101036.60
2023-05-06T14:16:33.815Z,101033.05
2023-05-06T14:19:01.720Z,101031.80
2023-05-06T14:21:29.610Z,101031.19
2023-05-06T14:23:57.733Z,101025.54
2023-05-06T14:26:26.798Z,101026.53
2023-05-06T14:28:54.753Z,101018.68
2023-05-06T14:31:23.466Z,101027.05
2023-05-06T14:33:51.390Z,101027.22
2023-05-06T14:36:20.211Z,101026.29
2023-05-06T14:38:48.082Z,101025.61
2023-05-06T14:41:16.222Z,101028.48
2023-05-06T14:43:44.106Z,101026.19
2023-05-06T14:46:14.451Z,101031.48
2023-05-06T14:48:43.324Z,101032.69
2023-05-06T14:51:11.399Z,101029.70
2023-05-06T14:53:39.349Z,101032.36
2023-05-06T14:56:10.581Z,101034.84
2023-05-06T14:58:39.309Z,101036.64
2023-05-06T15:01:07.374Z,101031.88
2023-05-06T15:03:36.325Z,101039.67
2023-05-06T15:06:04.551Z,101032.23
2023-05-06T15:08:32.520Z,101036.39
2023-05-06T15:11:03.087Z,101036.69
2023-05-06T15:13:31.978Z,101039.80
2023-05-06T15:15:59.980Z,101035.56
2023-05-06T15:18:27.909Z,101037.46
2023-05-06T15:20:58.587Z,101036.13
2023-05-06T15:23:27.216Z,101034.67
2023-05-06T15:25:58.003Z,101031.48
2023-05-06T15:28:25.978Z,101027.70
2023-05-06T15:30:53.861Z,101024.34
2023-05-06T15:33:22.200Z,101025.00
2023-05-06T15:35:50.351Z,101026.55
2023-05-06T15:38:18.415Z,101029.89
2023-05-06T15:40:51.464Z,101036.08
2023-05-06T15:43:23.778Z,101039.20
2023-05-06T15:45:52.554Z,101039.52
2023-05-06T15:48:20.496Z,101042.80
2023-05-06T15:50:48.362Z,101052.54
2023-05-06T15:53:17.032Z,101055.10
2023-05-06T15:55:49.506Z,101057.73
2023-05-06T15:58:24.521Z,101065.14
2023-05-06T16:00:52.483Z,101066.99
2023-05-06T16:03:21.141Z,101064.14
2023-05-06T16:05:49.309Z,101062.80
2023-05-06T16:08:17.244Z,101062.09
2023-05-06T16:10:46.131Z,101059.91
2023-05-06T16:13:14.190Z,101058.80
2023-05-06T16:15:42.190Z,101058.35
2023-05-06T16:18:11.106Z,101059.34
2023-05-06T16:20:39.193Z,101058.55
2023-05-06T16:23:07.208Z,101060.93
2023-05-06T16:25:37.750Z,101062.94
2023-05-06T16:28:06.579Z,101060.05
2023-05-06T16:30:35.415Z,101056.84
2023-05-06T16:33:05.028Z,101055.80
2023-05-06T16:35:33.066Z,101057.81
2023-05-06T16:38:00.898Z,101056.99
2023-05-06T16:40:31.079Z,101056.89
2023-05-06T16:42:59.183Z,101059.16
2023-05-06T16:45:27.029Z,101062.17
2023-05-06T16:47:55.883Z,101066.22
2023-05-06T16:50:23.785Z,101067.40
2023-05-06T16:52:53.005Z,101067.02
2023-05-06T16:55:21.902Z,101067.13
2023-05-06T16:57:50.060Z,101063.12
2023-05-06T17:00:18.582Z,101064.15
2023-05-06T17:02:47.701Z,101064.72
2023-05-06T17:05:16.134Z,101065.23
2023-05-06T17:07:44.756Z,101067.00
2023-05-06T17:10:12.927Z,101071.82
2023-05-06T17:12:42.255Z,101073.34
2023-05-06T17:15:11.403Z,101080.45
2023-05-06T17:17:39.980Z,101086.34
2023-05-06T17:20:10.632Z,101084.50
2023-05-06T17:22:38.818Z,101084.89
2023-05-06T17:25:07.488Z,101089.52
2023-05-06T17:27:35.421Z,101088.65
2023-05-06T17:30:03.690Z,101089.17
2023-05-06T17:32:31.629Z,101090.21
2023-05-06T17:34:59.596Z,101096.73
2023-05-06T17:37:27.470Z,101096.02
2023-05-06T17:39:55.417Z,101099.92
2023-05-06T17:42:23.560Z,101106.05
2023-05-06T17:44:51.490Z,101108.98
2023-05-06T17:47:22.834Z,101105.23
2023-05-06T17:49:53.021Z,101111.49
2023-05-06T17:52:21.254Z,101113.00
2023-05-06T17:55:01.047Z,101116.02
2023-05-06T17:57:30.379Z,101120.06
2023-05-06T17:59:58.312Z,101120.25
2023-05-06T18:02:26.232Z,101127.00
2023-05-06T18:04:54.208Z,101125.14
2023-05-06T18:07:22.135Z,101130.77
2023-05-06T18:09:51.986Z,101133.84
2023-05-06T18:12:20.063Z,101136.39
2023-05-06T18:14:48.070Z,101137.12
2023-05-06T18:17:15.963Z,101140.71
2023-05-06T18:19:43.851Z,101142.06
2023-05-06T18:22:11.757Z,101141.05
2023-05-06T18:24:39.764Z,101143.17
2023-05-06T18:27:07.774Z,101148.27
2023-05-06T18:29:35.761Z,101143.59
2023-05-06T18:32:04.215Z,101144.80
2023-05-06T18:34:32.231Z,101150.79
2023-05-06T18:37:00.654Z,101153.59
2023-05-06T18:39:28.553Z,101155.24
2023-05-06T18:41:56.443Z,101158.90
2023-05-06T18:44:24.518Z,101157.55
2023-05-06T18:46:52.548Z,101158.51
2023-05-06T18:49:20.355Z,101163.77
2023-05-06T18:51:48.292Z,101167.41
2023-05-06T18:54:16.343Z,101166.71
2023-05-06T18:56:44.450Z,101170.40
2023-05-06T18:59:13.111Z,101171.80
2023-05-06T19:01:41.513Z,101173.05
2023-05-06T19:04:09.543Z,101172.06
2023-05-06T19:06:38.587Z,101172.42
2023-05-06T19:09:08.092Z,101169.59
2023-05-06T19:11:36.085Z,101165.96
2023-05-06T19:14:04.530Z,101169.98
2023-05-06T19:16:35.412Z,101172.39
2023-05-06T19:19:06.937Z,101180.29
2023-05-06T19:21:38.341Z,101185.17
2023-05-06T19:24:06.489Z,101185.75
2023-05-06T19:26:34.597Z,101185.79
2023-05-06T19:29:03.389Z,101184.18
2023-05-06T19:31:31.592Z,101185.36
2023-05-06T19:33:59.504Z,101183.89
2023-05-06T19:36:28.307Z,101183.88
2023-05-06T19:38:56.309Z,101188.95
2023-05-06T19:41:24.422Z,101191.30
2023-05-06T19:43:52.296Z,101192.38
2023-05-06T19:46:20.279Z,101193.89
2023-05-06T19:48:48.561Z,101190.45
2023-05-06T19:51:16.662Z,101197.34
2023-05-06T19:53:44.802Z,101199.50
2023-05-06T19:56:14.114Z,101195.48
2023-05-06T19:58:42.226Z,101204.64
2023-05-06T20:01:10.258Z,101201.86
2023-05-06T20:03:39.059Z,101204.77
2023-05-06T20:06:07.165Z,101207.32
2023-05-06T20:08:35.371Z,101208.59
2023-05-06T20:11:03.572Z,101209.85
2023-05-06T20:13:31.798Z,101213.48
2023-05-06T20:16:00.315Z,101214.52
2023-05-06T20:18:28.262Z,101212.59
2023-05-06T20:20:56.314Z,101212.84
2023-05-06T20:23:24.147Z,101214.50
2023-05-06T20:25:55.036Z,101213.89
2023-05-06T20:28:23.368Z,101218.96
2023-05-06T20:30:51.556Z,101219.55
2023-05-06T20:33:19.445Z,101220.93
2023-05-06T20:35:48.153Z,101219.55
2023-05-06T20:38:16.913Z,101223.05
2023-05-06T20:40:44.892Z,101224.23
2023-05-06T20:43:12.867Z,101222.01
2023-05-06T20:45:40.731Z,101225.04
2023-05-06T20:48:08.630Z,101220.97
2023-05-06T20:50:37.097Z,101229.38
2023-05-06T20:53:05.064Z,101229.91
2023-05-06T20:55:33.747Z,101230.29
2023-05-06T20:58:01.853Z,101233.01
2023-05-06T21:00:29.834Z,101230.67
2023-05-06T21:02:57.776Z,101231.67
2023-05-06T21:05:25.987Z,101235.86
2023-05-06T21:07:53.917Z,101234.05
2023-05-06T21:10:21.867Z,101239.09
2023-05-06T21:12:50.854Z,101234.54
2023-05-06T21:15:18.880Z,101235.93
2023-05-06T21:17:47.267Z,101237.11
2023-05-06T21:20:16.541Z,101237.76
2023-05-06T21:22:44.514Z,101237.98
2023-05-06T21:25:13.196Z,101240.05
2023-05-06T21:27:41.389Z,101244.59
2023-05-06T21:30:10.325Z,101244.32
2023-05-06T21:32:38.278Z,101243.48
2023-05-06T21:35:06.731Z,101244.89
2023-05-06T21:37:35.841Z,101249.08
2023-05-06T21:40:04.428Z,101246.64
2023-05-06T21:42:32.399Z,101243.38
2023-05-06T21:45:00.291Z,101246.35
2023-05-06T21:47:28.215Z,101243.05
2023-05-06T21:49:56.080Z,101245.33
2023-05-06T21:52:24.724Z,101241.63
2023-05-06T21:54:52.620Z,101243.06
2023-05-06T21:57:20.531Z,101243.42
2023-05-06T21:59:48.352Z,101246.66
2023-05-06T22:02:16.368Z,101248.01
2023-05-06T22:04:44.544Z,101246.39
2023-05-06T22:07:12.565Z,101247.41
2023-05-06T22:09:40.536Z,101247.98
2023-05-06T22:12:11.513Z,101246.23
2023-05-06T22:14:41.511Z,101245.37
2023-05-06T22:17:10.849Z,101243.92
2023-05-06T22:19:40.820Z,101248.35
2023-05-06T22:22:09.195Z,101248.16
2023-05-06T22:24:37.150Z,101251.45
2023-05-06T22:27:05.351Z,101254.92
2023-05-06T22:29:35.033Z,101256.14
2023-05-06T22:32:03.187Z,101257.48
2023-05-06T22:34:31.463Z,101257.48
2023-05-06T22:37:00.943Z,101256.48
2023-05-06T22:39:29.569Z,101254.48
2023-05-06T22:41:57.461Z,101252.77
2023-05-06T22:44:25.450Z,101253.16
2023-05-06T22:46:54.717Z,101245.87
2023-05-06T22:49:23.522Z,101249.89
2023-05-06T22:51:52.187Z,101250.66
2023-05-06T22:54:19.968Z,101253.29
2023-05-06T22:56:47.912Z,101254.65
2023-05-06T22:59:16.056Z,101260.05
2023-05-06T23:01:44.018Z,101261.48
2023-05-06T23:04:11.927Z,101261.65
2023-05-06T23:06:40.048Z,101265.70
2023-05-06T23:09:08.233Z,101260.85
2023-05-06T23:11:36.071Z,101262.59
2023-05-06T23:14:04.649Z,101263.77
2023-05-06T23:16:33.166Z,101269.13
2023-05-06T23:19:01.261Z,101267.90
2023-05-06T23:21:29.196Z,101268.04
2023-05-06T23:23:57.037Z,101273.31
2023-05-06T23:26:25.180Z,101277.32
2023-05-06T23:28:52.997Z,101274.02
2023-05-06T23:31:20.933Z,101275.80
2023-05-06T23:33:48.860Z,101279.64
2023-05-06T23:36:17.631Z,101276.70
2023-05-06T23:38:45.455Z,101279.13
2023-05-06T23:41:13.396Z,101278.35
2023-05-06T23:43:41.273Z,101276.43
2023-05-06T23:46:09.149Z,101273.34
2023-05-06T23:48:38.022Z,101277.20
2023-05-06T23:51:05.937Z,101273.98
2023-05-06T23:53:35.967Z,101280.36
2023-05-06T23:56:04.488Z,101283.07
2023-05-06T23:58:32.319Z,101282.58
